Time;durP1;ratioP1;P1;durP2;ratioP2;P2;SDS_P1;SDS_P2;PMS_P1;PMS_P2;Temp;Humidity;BMP_temperature;BMP_pressure;BME280_temperature;BME280_humidity;BME280_pressure;Samples;Min_cycle;Max_cycle;Signal;HPM_P1;HPM_P2
2022/04/27 00:01:33;;;;;;;674.00;640.60;;;5.40;99.90;;;;;;4973275;28;20458;-82
2022/04/27 00:03:59;;;;;;;715.13;677.43;;;5.40;99.90;;;;;;4973434;28;20486;-83
2022/04/27 00:06:26;;;;;;;689.60;653.83;;;5.30;99.90;;;;;;4973098;28;20825;-79
2022/04/27 00:08:53;;;;;;;725.93;686.23;;;5.30;99.90;;;;;;4972506;28;20574;-79
2022/04/27 00:11:20;;;;;;;744.47;703.03;;;5.40;99.90;;;;;;4972460;28;20454;-79
2022/04/27 00:13:46;;;;;;;797.73;750.23;;;5.50;99.90;;;;;;4973281;28;20868;-79
2022/04/27 00:16:13;;;;;;;828.40;777.40;;;5.40;99.90;;;;;;4973152;28;20475;-80
2022/04/27 00:18:41;;;;;;;829.10;777.50;;;5.40;99.90;;;;;;4972515;28;20462;-79
2022/04/27 00:21:08;;;;;;;872.83;818.37;;;5.30;99.90;;;;;;4973194;28;20455;-79
2022/04/27 00:23:35;;;;;;;869.17;813.10;;;5.40;99.90;;;;;;4972974;28;20463;-81
2022/04/27 00:26:01;;;;;;;869.17;812.63;;;5.20;99.90;;;;;;4972506;28;20494;-79
2022/04/27 00:28:29;;;;;;;873.43;815.80;;;5.30;99.90;;;;;;4972202;28;20489;-79
2022/04/27 00:30:56;;;;;;;881.20;822.47;;;5.30;99.90;;;;;;4972679;28;20458;-79
2022/04/27 00:33:22;;;;;;;882.87;822.23;;;5.30;99.90;;;;;;4972907;28;20466;-79
2022/04/27 00:35:51;;;;;;;871.83;812.50;;;5.30;99.90;;;;;;4972762;28;20486;-79
2022/04/27 00:38:17;;;;;;;882.33;822.30;;;5.30;99.90;;;;;;4972179;28;20553;-81
2022/04/27 00:40:44;;;;;;;884.93;825.23;;;5.40;99.90;;;;;;4974767;28;20459;-79
2022/04/27 00:43:14;;;;;;;868.30;808.70;;;5.40;99.90;;;;;;4976569;28;20454;-79
2022/04/27 00:45:40;;;;;;;862.33;804.93;;;5.50;99.90;;;;;;4976158;28;20455;-79
2022/04/27 00:48:09;;;;;;;878.77;817.67;;;5.50;99.90;;;;;;4975634;28;20479;-77
2022/04/27 00:50:36;;;;;;;866.27;807.57;;;5.50;99.90;;;;;;4976065;28;20587;-80
2022/04/27 00:53:04;;;;;;;871.43;811.53;;;5.50;99.90;;;;;;4956712;28;20455;-79
2022/04/27 00:55:31;;;;;;;859.60;798.40;;;5.50;99.90;;;;;;4956710;29;20949;-79
2022/04/27 00:57:59;;;;;;;866.57;805.10;;;5.60;99.90;;;;;;4975261;28;20949;-79
2022/04/27 01:00:26;;;;;;;875.00;813.57;;;5.60;99.90;;;;;;4975460;28;20459;-79
2022/04/27 01:02:53;;;;;;;854.73;797.60;;;5.70;99.90;;;;;;4975753;28;20463;-79
2022/04/27 01:05:21;;;;;;;865.67;806.07;;;5.60;99.90;;;;;;4976197;28;20999;-79
2022/04/27 01:07:48;;;;;;;856.67;799.37;;;5.60;99.90;;;;;;4975569;28;20512;-79
2022/04/27 01:10:16;;;;;;;861.17;801.70;;;5.60;99.90;;;;;;4975173;28;20455;-79
2022/04/27 01:12:43;;;;;;;865.73;806.23;;;5.60;99.90;;;;;;4975731;28;20455;-82
2022/04/27 01:15:10;;;;;;;847.00;788.50;;;5.60;99.90;;;;;;4975648;28;21040;-81
2022/04/27 01:17:37;;;;;;;846.00;787.83;;;5.60;99.90;;;;;;4975628;28;20471;-80
2022/04/27 01:20:06;;;;;;;871.37;809.93;;;5.60;99.90;;;;;;4975318;28;20466;-79
2022/04/27 01:22:34;;;;;;;846.87;787.67;;;5.50;99.90;;;;;;4975208;28;20895;-79
2022/04/27 01:25:00;;;;;;;844.00;785.90;;;5.40;99.90;;;;;;4975899;28;20459;-79
2022/04/27 01:27:27;;;;;;;844.10;784.33;;;5.50;99.90;;;;;;4975037;28;20993;-79
2022/04/27 01:29:54;;;;;;;857.80;796.13;;;5.50;99.90;;;;;;4974921;28;20458;-79
2022/04/27 01:32:21;;;;;;;862.50;798.70;;;5.40;99.90;;;;;;4975060;28;20459;-79
2022/04/27 01:34:48;;;;;;;860.20;796.80;;;5.40;99.90;;;;;;4975411;28;20458;-79
2022/04/27 01:40:00;;;;;;;863.50;800.27;;;5.30;99.90;;;;;;4974676;28;20438;-79
2022/04/27 01:42:27;;;;;;;865.50;801.10;;;5.30;99.90;;;;;;4974959;28;20455;-80
2022/04/27 01:44:54;;;;;;;869.77;806.83;;;5.20;99.90;;;;;;4975191;28;20454;-79
2022/04/27 01:47:20;;;;;;;873.33;809.33;;;5.10;99.90;;;;;;4974586;28;20478;-79
2022/04/27 01:49:47;;;;;;;860.83;798.47;;;5.00;99.90;;;;;;4974641;28;20463;-82
2022/04/27 01:55:00;;;;;;;877.53;811.43;;;4.90;99.90;;;;;;4975178;28;20446;-79
2022/04/27 01:57:27;;;;;;;893.50;819.83;;;4.80;99.90;;;;;;4974660;28;20490;-79
2022/04/27 01:59:54;;;;;;;880.27;807.50;;;4.90;99.90;;;;;;4974129;28;20455;-81
2022/04/27 02:02:21;;;;;;;865.67;795.40;;;4.90;99.90;;;;;;4975075;28;20463;-79
2022/04/27 02:04:48;;;;;;;823.77;764.10;;;4.90;99.90;;;;;;4974775;28;20455;-81
2022/04/27 02:07:15;;;;;;;834.40;775.37;;;4.90;99.90;;;;;;4974800;28;20471;-79
2022/04/27 02:09:41;;;;;;;821.97;765.40;;;5.00;99.90;;;;;;4973996;28;20455;-79
2022/04/27 02:12:10;;;;;;;790.17;740.93;;;5.10;99.90;;;;;;4974546;28;20451;-79
2022/04/27 02:14:37;;;;;;;740.30;698.73;;;5.10;99.90;;;;;;4974974;28;20466;-79
2022/04/27 02:17:04;;;;;;;762.83;717.73;;;5.10;99.90;;;;;;4974990;28;20486;-79
2022/04/27 02:19:31;;;;;;;776.73;729.63;;;5.10;99.90;;;;;;4974219;28;20447;-79
2022/04/27 02:21:58;;;;;;;783.83;735.83;;;5.10;99.90;;;;;;4974883;28;20455;-79
2022/04/27 02:24:25;;;;;;;796.97;745.73;;;5.00;99.90;;;;;;4974218;28;20455;-82
2022/04/27 02:26:54;;;;;;;791.50;741.07;;;4.90;99.90;;;;;;4974382;28;20471;-79
2022/04/27 02:29:22;;;;;;;808.43;755.27;;;4.80;99.90;;;;;;4973836;28;20849;-79
2022/04/27 02:31:49;;;;;;;818.60;764.53;;;4.70;99.90;;;;;;4974533;28;20513;-79
2022/04/27 02:34:16;;;;;;;856.63;794.73;;;4.50;99.90;;;;;;4974379;28;20465;-79
2022/04/27 02:36:43;;;;;;;872.47;805.07;;;4.50;99.90;;;;;;4974295;28;20498;-79
2022/04/27 02:39:10;;;;;;;871.73;805.47;;;4.40;99.90;;;;;;4973757;28;20462;-80
2022/04/27 02:41:37;;;;;;;852.10;786.40;;;4.30;99.90;;;;;;4973974;28;20944;-79
2022/04/27 02:44:04;;;;;;;854.00;788.30;;;4.30;99.90;;;;;;4974337;28;20842;-80
2022/04/27 02:46:32;;;;;;;854.77;787.27;;;4.30;99.90;;;;;;4973995;28;20475;-79
2022/04/27 02:51:52;;;;;;;837.93;771.53;;;4.20;99.90;;;;;;4973891;28;20449;-79
2022/04/27 02:54:20;;;;;;;856.57;790.47;;;4.20;99.90;;;;;;4973998;28;20454;-80
2022/04/27 02:56:47;;;;;;;835.60;773.13;;;4.20;99.90;;;;;;4997041;23;20550;-79
2022/04/27 02:59:14;;;;;;;838.40;775.87;;;4.20;99.90;;;;;;4974668;28;20447;-80
2022/04/27 03:01:42;;;;;;;795.77;739.97;;;4.30;99.90;;;;;;4974116;28;20841;-80
2022/04/27 03:04:10;;;;;;;815.73;757.07;;;4.40;99.90;;;;;;4972659;28;20450;-80
2022/04/27 03:06:37;;;;;;;812.40;755.17;;;4.40;99.90;;;;;;4973411;28;20478;-80
2022/04/27 03:09:03;;;;;;;825.57;766.10;;;4.40;99.90;;;;;;4972784;28;20482;-80
2022/04/27 03:11:30;;;;;;;796.67;741.60;;;4.30;99.90;;;;;;4973586;28;20454;-80
2022/04/27 03:13:57;;;;;;;818.70;760.60;;;4.30;99.90;;;;;;4973575;28;20462;-80
2022/04/27 03:16:24;;;;;;;806.50;750.33;;;4.30;99.90;;;;;;4974814;28;20475;-80
2022/04/27 03:18:52;;;;;;;804.87;749.80;;;4.40;99.90;;;;;;4972342;28;20948;-80
2022/04/27 03:21:18;;;;;;;760.53;712.27;;;4.30;99.90;;;;;;4972974;28;20458;-79
2022/04/27 03:23:45;;;;;;;803.60;749.13;;;4.40;99.90;;;;;;4973917;28;20482;-83
2022/04/27 03:26:12;;;;;;;802.43;749.33;;;4.30;99.90;;;;;;4973867;28;20459;-80
2022/04/27 03:28:39;;;;;;;814.83;760.63;;;4.10;99.90;;;;;;4968123;28;20494;-81
2022/04/27 03:31:06;;;;;;;793.70;739.10;;;4.00;99.90;;;;;;4973187;28;20459;-80
2022/04/27 03:33:32;;;;;;;794.70;738.97;;;4.00;99.90;;;;;;4973816;28;21013;-80
2022/04/27 03:36:00;;;;;;;822.53;763.43;;;4.00;99.90;;;;;;4972410;28;20459;-79
2022/04/27 03:38:27;;;;;;;823.50;763.90;;;3.90;99.90;;;;;;4971830;28;20485;-80
2022/04/27 03:40:54;;;;;;;836.30;774.17;;;3.90;99.90;;;;;;4973424;28;20450;-80
2022/04/27 03:43:21;;;;;;;846.23;781.63;;;3.80;99.90;;;;;;4971837;28;20466;-80
2022/04/27 03:45:47;;;;;;;821.27;758.87;;;3.90;99.90;;;;;;4972719;28;20461;-81
2022/04/27 03:48:14;;;;;;;806.90;746.83;;;4.00;99.90;;;;;;4972869;28;20486;-80
2022/04/27 03:50:41;;;;;;;810.57;750.37;;;3.90;99.90;;;;;;4971893;28;20458;-80
2022/04/27 03:53:10;;;;;;;823.03;760.67;;;4.00;99.90;;;;;;4972735;28;20493;-80
2022/04/27 03:55:37;;;;;;;849.20;783.13;;;4.00;99.90;;;;;;4973233;28;20948;-80
2022/04/27 03:58:04;;;;;;;846.83;782.87;;;4.00;99.90;;;;;;4971270;28;20490;-80
2022/04/27 04:00:31;;;;;;;849.87;783.07;;;4.00;99.90;;;;;;4972063;28;20459;-80
2022/04/27 04:02:59;;;;;;;820.93;758.40;;;3.90;99.90;;;;;;4972751;28;20465;-80
2022/04/27 04:05:26;;;;;;;852.47;784.63;;;3.90;99.90;;;;;;4952672;29;20460;-80
2022/04/27 04:07:53;;;;;;;858.50;790.43;;;3.90;99.90;;;;;;4954425;28;20479;-80
2022/04/27 04:10:21;;;;;;;860.10;792.80;;;3.80;99.90;;;;;;4972716;28;20455;-81
2022/04/27 04:12:48;;;;;;;862.40;795.73;;;3.70;99.90;;;;;;4972208;28;20461;-81
2022/04/27 04:15:15;;;;;;;888.47;818.17;;;3.70;99.90;;;;;;4977932;28;20474;-81
2022/04/27 04:17:45;;;;;;;875.87;807.00;;;3.70;99.90;;;;;;4980809;28;20471;-81
2022/04/27 04:20:13;;;;;;;852.40;782.20;;;3.70;99.90;;;;;;4980756;28;20446;-81
2022/04/27 04:22:40;;;;;;;857.90;784.70;;;3.70;99.90;;;;;;4979466;28;20478;-81
2022/04/27 04:30:38;;;;;;;826.03;754.57;;;3.90;99.90;;;;;;4980431;28;20443;-81
2022/04/27 04:33:05;;;;;;;845.40;773.00;;;4.00;99.90;;;;;;4980339;28;20447;-82
2022/04/27 04:35:32;;;;;;;834.77;761.53;;;4.10;99.90;;;;;;4978903;28;20450;-81
2022/04/27 04:37:59;;;;;;;839.27;765.47;;;4.30;99.90;;;;;;4981793;28;20994;-82
2022/04/27 04:40:26;;;;;;;828.53;756.60;;;4.30;99.90;;;;;;4980491;28;20450;-81
2022/04/27 04:42:54;;;;;;;842.37;767.97;;;4.40;99.90;;;;;;4978763;28;20450;-81
2022/04/27 04:45:21;;;;;;;835.17;760.93;;;4.50;99.90;;;;;;4980374;28;20450;-82
2022/04/27 04:47:48;;;;;;;835.97;762.73;;;4.60;99.90;;;;;;4980437;28;20983;-82
2022/04/27 04:50:14;;;;;;;846.47;773.70;;;4.70;99.90;;;;;;4980269;28;20483;-83
2022/04/27 04:52:41;;;;;;;842.13;768.30;;;4.70;99.90;;;;;;4980455;28;20538;-81
2022/04/27 04:55:09;;;;;;;844.80;771.83;;;4.80;99.90;;;;;;4981016;28;20459;-82
2022/04/27 04:57:36;;;;;;;856.77;782.00;;;4.90;99.90;;;;;;4983404;28;20485;-82
2022/04/27 05:00:05;;;;;;;843.27;770.20;;;5.00;99.90;;;;;;4982274;28;20459;-82
2022/04/27 05:02:33;;;;;;;841.27;768.60;;;5.10;99.90;;;;;;4982725;28;20821;-82
2022/04/27 05:05:02;;;;;;;852.57;779.87;;;5.20;99.90;;;;;;4981025;28;20473;-81
2022/04/27 05:07:29;;;;;;;853.73;781.20;;;5.20;99.90;;;;;;4979464;28;20479;-81
2022/04/27 05:09:56;;;;;;;850.87;779.03;;;5.30;99.90;;;;;;4979957;28;20534;-82
2022/04/27 05:12:24;;;;;;;854.73;783.20;;;5.40;99.90;;;;;;4979499;28;20458;-82
2022/04/27 05:14:50;;;;;;;832.87;764.47;;;5.40;99.90;;;;;;4980262;28;20468;-82
2022/04/27 05:17:18;;;;;;;841.33;772.43;;;5.50;99.90;;;;;;4971301;28;20510;-82
2022/04/27 05:19:45;;;;;;;826.20;759.10;;;5.50;99.90;;;;;;4981808;28;20462;-81
2022/04/27 05:22:12;;;;;;;826.67;763.40;;;5.60;99.90;;;;;;4981346;28;20831;-84
2022/04/27 05:24:39;;;;;;;811.50;750.80;;;5.70;99.90;;;;;;4980180;28;20451;-84
2022/04/27 05:27:05;;;;;;;823.13;764.50;;;5.80;99.90;;;;;;4978878;28;21014;-84
2022/04/27 05:32:18;;;;;;;792.43;741.37;;;6.20;99.90;;;;;;4977244;28;20967;-82
2022/04/27 05:34:45;;;;;;;591.50;561.63;;;6.30;99.90;;;;;;4971554;28;20455;-81
2022/04/27 05:37:12;;;;;;;553.63;528.43;;;6.50;99.90;;;;;;4975182;28;20479;-82
2022/04/27 05:39:39;;;;;;;355.13;339.23;;;6.70;99.90;;;;;;4970552;28;20511;-82
2022/04/27 05:42:06;;;;;;;277.53;265.43;;;6.90;99.90;;;;;;4966667;28;20454;-81
2022/04/27 05:44:33;;;;;;;210.77;200.80;;;7.10;99.90;;;;;;4975627;28;20561;-82
2022/04/27 05:46:59;;;;;;;101.87;96.33;;;7.20;99.90;;;;;;4974652;28;20475;-81
2022/04/27 05:49:27;;;;;;;52.80;49.10;;;7.40;99.90;;;;;;4973433;28;20482;-82
2022/04/27 05:51:54;;;;;;;46.83;42.90;;;7.50;99.90;;;;;;4974935;28;20582;-82
2022/04/27 05:54:21;;;;;;;29.00;25.00;;;7.60;99.60;;;;;;4974157;28;20459;-83
2022/04/27 05:56:48;;;;;;;30.43;27.53;;;7.80;97.30;;;;;;4974451;28;20858;-82
2022/04/27 05:59:14;;;;;;;28.33;19.00;;;7.90;96.70;;;;;;4973840;28;20980;-82
2022/04/27 06:01:41;;;;;;;28.23;18.57;;;8.20;96.60;;;;;;4973744;28;20463;-83
2022/04/27 06:04:08;;;;;;;27.03;17.17;;;8.40;95.20;;;;;;4974465;28;20491;-82
2022/04/27 06:06:36;;;;;;;22.67;17.87;;;8.40;92.10;;;;;;4974331;28;20477;-82
2022/04/27 06:09:03;;;;;;;27.70;17.30;;;8.60;93.70;;;;;;4973455;28;20912;-82
2022/04/27 06:11:30;;;;;;;20.57;16.60;;;8.80;92.40;;;;;;4973803;28;20538;-82
2022/04/27 06:13:57;;;;;;;29.40;18.40;;;8.80;90.60;;;;;;4974971;28;20462;-82
2022/04/27 06:16:24;;;;;;;18.90;14.20;;;8.80;90.90;;;;;;4974616;28;20455;-83
2022/04/27 06:18:51;;;;;;;27.70;18.43;;;8.80;90.90;;;;;;4973209;28;20510;-83
2022/04/27 06:21:18;;;;;;;25.60;16.93;;;8.90;91.60;;;;;;4974433;28;20467;-83
2022/04/27 06:23:46;;;;;;;23.30;17.60;;;8.80;90.30;;;;;;4974694;28;20884;-82
2022/04/27 06:26:14;;;;;;;23.73;17.33;;;8.70;90.30;;;;;;4974435;28;20459;-82
2022/04/27 06:28:41;;;;;;;26.90;20.00;;;8.70;90.90;;;;;;4973597;28;20459;-82
2022/04/27 06:31:08;;;;;;;26.23;19.70;;;8.70;92.30;;;;;;4974547;28;21050;-82
2022/04/27 06:33:35;;;;;;;32.43;21.97;;;8.60;92.60;;;;;;4974401;28;20462;-82
2022/04/27 06:36:01;;;;;;;22.70;17.17;;;8.60;92.20;;;;;;4973799;28;20956;-82
2022/04/27 06:38:28;;;;;;;31.43;19.60;;;8.60;91.30;;;;;;4973879;28;21008;-82
2022/04/27 06:40:56;;;;;;;30.70;22.87;;;8.60;91.10;;;;;;4974290;28;20459;-82
2022/04/27 06:43:23;;;;;;;28.10;20.73;;;8.70;90.90;;;;;;4973808;28;20946;-81
2022/04/27 06:45:50;;;;;;;23.63;19.90;;;8.70;91.90;;;;;;4974046;28;20463;-82
2022/04/27 06:48:17;;;;;;;28.77;22.40;;;8.80;90.90;;;;;;4973226;28;21058;-81
2022/04/27 06:50:43;;;;;;;33.07;24.97;;;8.80;91.70;;;;;;4974083;28;20486;-82
2022/04/27 06:53:10;;;;;;;34.20;24.20;;;8.90;92.00;;;;;;4973780;28;20455;-82
2022/04/27 06:55:38;;;;;;;27.13;20.30;;;9.20;91.10;;;;;;4974197;28;20940;-82
2022/04/27 06:58:06;;;;;;;25.97;21.17;;;9.10;91.10;;;;;;4973437;28;20479;-84
2022/04/27 07:00:33;;;;;;;24.07;18.57;;;9.20;90.90;;;;;;4973911;28;21043;-83
2022/04/27 07:03:00;;;;;;;19.90;13.40;;;9.30;87.40;;;;;;4958213;29;20455;-82
2022/04/27 07:05:27;;;;;;;26.57;18.27;;;9.50;84.60;;;;;;4969346;28;20459;-83
2022/04/27 07:07:54;;;;;;;11.77;8.50;;;9.60;85.20;;;;;;4978910;28;20569;-82
2022/04/27 07:10:21;;;;;;;21.93;15.87;;;9.70;80.10;;;;;;4972660;28;20479;-82
2022/04/27 07:12:48;;;;;;;24.33;16.83;;;9.80;81.40;;;;;;4974762;28;20975;-81
2022/04/27 07:15:16;;;;;;;23.30;14.80;;;10.00;79.90;;;;;;4974938;28;20451;-81
2022/04/27 07:17:43;;;;;;;20.80;14.20;;;10.20;77.90;;;;;;4975300;28;20479;-82
2022/04/27 07:20:11;;;;;;;22.63;15.80;;;10.20;75.00;;;;;;4973808;28;20455;-81
2022/04/27 07:22:37;;;;;;;19.13;13.20;;;10.40;73.10;;;;;;4975763;28;20466;-80
2022/04/27 07:25:05;;;;;;;21.07;15.40;;;10.50;69.20;;;;;;4974331;28;20455;-79
2022/04/27 07:27:32;;;;;;;22.07;14.07;;;10.60;71.20;;;;;;4973160;28;20835;-81
2022/04/27 07:29:59;;;;;;;27.20;13.80;;;10.60;68.10;;;;;;4973019;28;20537;-81
2022/04/27 07:32:27;;;;;;;20.65;12.10;;;10.80;70.20;;;;;;4972482;28;20466;-81
2022/04/27 07:34:54;;;;;;;21.07;12.17;;;10.90;68.30;;;;;;4974174;28;20196;-80
2022/04/27 07:37:20;;;;;;;16.47;12.20;;;11.10;64.20;;;;;;4975506;28;20853;-82
2022/04/27 07:39:47;;;;;;;16.13;9.60;;;11.20;63.50;;;;;;4975544;28;20451;-80
2022/04/27 07:42:15;;;;;;;13.50;10.10;;;11.20;55.40;;;;;;4973843;28;20462;-82
2022/04/27 07:44:42;;;;;;;15.90;10.50;;;11.40;56.90;;;;;;4974003;28;20553;-81
2022/04/27 07:47:09;;;;;;;16.33;11.47;;;11.50;56.00;;;;;;4973302;28;20478;-81
2022/04/27 07:49:37;;;;;;;13.30;9.97;;;11.70;58.40;;;;;;4972516;28;20573;-81
2022/04/27 07:52:04;;;;;;;15.13;10.17;;;11.80;53.50;;;;;;4973806;28;20455;-81
2022/04/27 07:54:30;;;;;;;20.67;10.53;;;11.90;54.30;;;;;;4973355;28;20455;-81
2022/04/27 07:56:57;;;;;;;16.93;9.20;;;12.30;55.20;;;;;;4973293;28;21003;-80
2022/04/27 07:59:24;;;;;;;22.00;10.20;;;12.50;47.50;;;;;;4972648;28;20455;-79
2022/04/27 08:01:51;;;;;;;16.33;9.13;;;12.70;48.30;;;;;;4972542;28;20486;-80
2022/04/27 08:04:17;;;;;;;21.80;9.30;;;12.80;47.10;;;;;;4972703;28;20466;-80
2022/04/27 08:06:45;;;;;;;15.37;9.17;;;13.20;43.80;;;;;;4972764;28;20240;-80
2022/04/27 08:09:12;;;;;;;16.23;9.67;;;13.50;44.20;;;;;;4971580;28;20957;-80
2022/04/27 08:11:40;;;;;;;14.17;9.10;;;13.80;39.40;;;;;;4973096;28;20462;-80
2022/04/27 08:14:07;;;;;;;15.43;8.40;;;14.10;37.80;;;;;;4973040;28;20833;-80
2022/04/27 08:16:33;;;;;;;16.10;8.77;;;14.20;35.90;;;;;;4972544;28;20996;-80
2022/04/27 08:19:00;;;;;;;12.30;8.50;;;14.70;34.00;;;;;;4971932;28;20496;-80
2022/04/27 08:21:28;;;;;;;12.37;8.67;;;14.90;34.20;;;;;;4972762;28;20466;-81
2022/04/27 08:23:56;;;;;;;13.77;8.70;;;14.50;35.20;;;;;;4972742;28;20459;-80
2022/04/27 08:26:22;;;;;;;13.13;8.63;;;14.20;31.30;;;;;;4972929;28;20457;-80
2022/04/27 08:28:49;;;;;;;18.27;9.63;;;14.60;34.50;;;;;;4972201;28;20912;-80
2022/04/27 08:31:17;;;;;;;16.47;9.00;;;14.80;30.40;;;;;;4972559;28;20489;-81
2022/04/27 08:33:44;;;;;;;12.13;6.40;;;15.40;33.80;;;;;;4953544;29;20455;-80
2022/04/27 08:36:11;;;;;;;15.43;6.93;;;14.80;30.50;;;;;;4967496;28;20463;-80
2022/04/27 08:38:38;;;;;;;14.07;6.33;;;14.40;27.60;;;;;;4972011;28;20988;-81
2022/04/27 08:41:06;;;;;;;13.87;7.10;;;14.50;27.30;;;;;;4972810;28;20947;-80
2022/04/27 08:43:33;;;;;;;15.20;9.10;;;14.60;30.20;;;;;;4972781;28;20553;-80
2022/04/27 08:46:03;;;;;;;13.90;7.70;;;14.80;31.50;;;;;;4972459;28;20910;-80
2022/04/27 08:48:31;;;;;;;12.40;7.57;;;15.10;25.90;;;;;;4972057;28;20514;-80
2022/04/27 08:50:58;;;;;;;11.03;7.30;;;15.00;25.50;;;;;;4971499;28;21798;-80
2022/04/27 08:53:25;;;;;;;13.60;8.63;;;15.00;27.90;;;;;;4972306;28;20547;-80
2022/04/27 08:55:53;;;;;;;12.30;7.40;;;15.00;26.80;;;;;;4972689;28;20456;-80
2022/04/27 08:58:22;;;;;;;11.70;8.80;;;15.00;25.00;;;;;;4995639;23;20491;-80
2022/04/27 09:00:49;;;;;;;11.80;8.33;;;15.10;28.40;;;;;;4955671;28;20453;-80
2022/04/27 09:03:27;;;;;;;13.13;8.53;;;15.40;25.80;;;;;;4957175;28;20467;-80
2022/04/27 09:05:55;;;;;;;13.10;9.53;;;15.80;26.10;;;;;;4972076;28;20452;-80
2022/04/27 09:08:25;;;;;;;12.70;8.53;;;16.40;27.00;;;;;;4975496;28;20477;-81
2022/04/27 09:11:10;;;;;;;16.13;8.50;;;16.30;21.90;;;;;;4958338;28;20484;-80
2022/04/27 09:13:39;;;;;;;15.20;9.10;;;16.40;23.50;;;;;;4975844;28;20452;-81
2022/04/27 09:16:07;;;;;;;17.37;9.03;;;16.50;24.50;;;;;;4977676;28;20465;-81
2022/04/27 09:21:32;;;;;;;16.00;10.83;;;16.00;19.80;;;;;;4959848;28;20513;-82
2022/04/27 09:24:03;;;;;;;11.17;8.43;;;16.00;19.90;;;;;;4960176;28;20453;-80
2022/04/27 09:26:31;;;;;;;17.10;9.00;;;16.30;17.10;;;;;;4959045;28;20459;-80
2022/04/27 09:28:59;;;;;;;12.00;9.40;;;16.00;21.30;;;;;;4966615;28;20468;-81
2022/04/27 09:31:28;;;;;;;12.37;8.23;;;16.40;22.90;;;;;;4957271;28;20479;-80
2022/04/27 09:33:59;;;;;;;11.10;8.00;;;16.90;18.40;;;;;;4961235;28;20483;-81
2022/04/27 09:36:26;;;;;;;15.73;8.07;;;17.00;17.60;;;;;;4977190;28;20463;-80
2022/04/27 09:38:54;;;;;;;14.20;8.40;;;17.40;15.20;;;;;;4958870;28;20454;-81
2022/04/27 09:41:41;;;;;;;11.80;8.73;;;16.90;17.50;;;;;;4957695;28;20455;-81
2022/04/27 09:44:10;;;;;;;17.63;9.73;;;17.40;12.30;;;;;;4938404;29;20501;-80
2022/04/27 09:46:41;;;;;;;13.20;9.53;;;17.40;13.30;;;;;;4939650;29;20468;-80
2022/04/27 09:49:14;;;;;;;15.70;9.70;;;17.00;10.10;;;;;;4963228;28;20455;-77
2022/04/27 09:51:48;;;;;;;14.07;9.63;;;16.90;16.50;;;;;;4963896;28;20486;-77
2022/04/27 09:54:18;;;;;;;11.27;8.40;;;17.20;12.60;;;;;;4962186;28;20880;-77
2022/04/27 09:56:51;;;;;;;14.57;9.67;;;17.60;11.50;;;;;;4970334;28;20458;-78
2022/04/27 09:59:21;;;;;;;15.77;9.70;;;17.40;6.40;;;;;;4967951;28;21050;-77
2022/04/27 10:01:49;;;;;;;12.50;9.50;;;17.00;12.30;;;;;;4957965;28;20543;-80
2022/04/27 10:04:20;;;;;;;13.00;9.37;;;17.50;14.90;;;;;;4961648;28;20454;-78
2022/04/27 10:06:48;;;;;;;12.80;9.60;;;17.60;15.70;;;;;;4957169;28;20470;-78
2022/04/27 10:09:15;;;;;;;11.27;7.20;;;17.60;10.50;;;;;;4964160;28;20481;-78
2022/04/27 10:11:43;;;;;;;17.97;8.97;;;17.20;10.20;;;;;;4970407;28;20475;-76
2022/04/27 10:14:11;;;;;;;12.00;9.33;;;17.40;11.20;;;;;;4966075;28;20459;-78
2022/04/27 10:16:39;;;;;;;10.37;8.23;;;17.70;7.80;;;;;;4972264;28;20466;-76
2022/04/27 10:19:10;;;;;;;12.33;9.50;;;17.80;10.60;;;;;;4955398;28;20451;-78
2022/04/27 10:21:39;;;;;;;13.00;9.10;;;18.50;10.30;;;;;;4954437;28;20463;-79
2022/04/27 10:24:07;;;;;;;16.10;10.37;;;19.50;4.20;;;;;;4954535;28;20492;-78
2022/04/27 10:26:34;;;;;;;13.30;10.30;;;19.10;1.00;;;;;;4976492;28;20454;-83
2022/04/27 10:29:02;;;;;;;13.90;7.90;;;19.20;4.00;;;;;;4980289;28;20546;-81
2022/04/27 10:32:02;;;;;;;12.47;8.93;;;19.00;4.10;;;;;;4984981;28;20495;-82
2022/04/27 10:34:29;;;;;;;13.57;9.57;;;20.00;1.00;;;;;;4963769;28;20507;-84
2022/04/27 10:36:57;;;;;;;12.20;9.07;;;20.70;1.00;;;;;;4970775;28;20474;-80
2022/04/27 10:39:25;;;;;;;16.10;10.30;;;18.90;4.60;;;;;;4977193;28;20491;-82
2022/04/27 10:42:34;;;;;;;12.60;9.67;;;18.00;9.30;;;;;;4976865;28;20457;-81
2022/04/27 10:45:09;;;;;;;12.30;9.57;;;18.40;3.40;;;;;;4962766;28;20443;-81
2022/04/27 10:47:38;;;;;;;16.47;10.53;;;18.70;5.30;;;;;;4962956;28;20470;-82
2022/04/27 10:50:28;;;;;;;14.43;9.37;;;18.60;9.20;;;;;;4975771;28;20951;-83
2022/04/27 10:52:56;;;;;;;15.27;10.20;;;18.00;9.00;;;;;;4983941;28;20454;-81
2022/04/27 10:55:43;;;;;;;13.33;9.70;;;18.50;4.60;;;;;;4976593;28;20457;-79
2022/04/27 10:58:15;;;;;;;12.00;9.67;;;20.10;2.50;;;;;;4973087;28;20510;-78
2022/04/27 11:01:25;;;;;;;11.73;9.50;;;19.10;1.10;;;;;;4973113;28;20447;-80
2022/04/27 11:04:07;;;;;;;12.00;9.47;;;19.40;1.10;;;;;;4934803;29;20460;-79
2022/04/27 11:07:10;;;;;;;14.30;10.50;;;19.80;1.00;;;;;;4952810;28;20453;-79
2022/04/27 11:10:09;;;;;;;12.07;9.07;;;19.00;1.00;;;;;;4944835;28;20456;-79
2022/04/27 11:12:36;;;;;;;11.43;9.63;;;19.10;1.00;;;;;;4956308;28;20490;-80
2022/04/27 11:15:04;;;;;;;13.50;9.17;;;19.20;2.00;;;;;;4954363;29;20722;-79
2022/04/27 11:17:33;;;;;;;14.90;9.63;;;19.00;1.00;;;;;;4962084;28;20468;-79
2022/04/27 11:20:02;;;;;;;14.27;10.60;;;18.90;1.00;;;;;;4972737;28;20452;-81
2022/04/27 11:22:36;;;;;;;15.80;10.23;;;20.20;1.00;;;;;;4978059;28;20454;-82
2022/04/27 11:25:05;;;;;;;14.77;9.90;;;21.00;1.00;;;;;;4968719;28;20462;-82
2022/04/27 11:27:41;;;;;;;15.90;10.40;;;21.50;1.00;;;;;;4973782;28;20482;-81
2022/04/27 11:30:13;;;;;;;11.87;9.77;;;20.50;1.00;;;;;;4976428;28;20458;-85
2022/04/27 11:37:19;;;;;;;;;;;;;;;;;;;;;
2022/04/27 11:39:47;;;;;;;14.60;10.03;;;23.00;1.00;;;;;;4954094;29;20958;-78
2022/04/27 11:42:16;;;;;;;13.33;10.17;;;22.20;1.00;;;;;;4968645;28;20447;-79
2022/04/27 11:44:43;;;;;;;15.37;11.00;;;22.30;1.00;;;;;;4966900;28;20448;-80
2022/04/27 11:47:27;;;;;;;14.00;9.87;;;21.60;1.00;;;;;;4969229;28;20482;-78
2022/04/27 11:49:56;;;;;;;13.27;10.40;;;21.70;1.00;;;;;;4973795;28;20459;-78
2022/04/27 11:52:24;;;;;;;16.70;9.80;;;22.40;1.00;;;;;;4970149;28;20531;-76
2022/04/27 11:54:51;;;;;;;14.80;10.70;;;22.20;1.00;;;;;;4969825;28;20451;-80
2022/04/27 11:57:21;;;;;;;14.50;11.47;;;21.20;1.00;;;;;;4964986;28;21038;-84
2022/04/27 11:59:49;;;;;;;13.23;9.60;;;21.70;1.00;;;;;;4968957;28;20456;-81
2022/04/27 12:02:23;;;;;;;17.43;12.77;;;23.50;1.00;;;;;;4963008;28;20452;-84
2022/04/27 12:04:51;;;;;;;13.33;11.87;;;22.90;1.00;;;;;;4959814;28;20506;-84
2022/04/27 12:07:19;;;;;;;12.13;9.47;;;22.40;1.00;;;;;;4960246;28;20479;-81
2022/04/27 12:09:59;;;;;;;16.33;11.97;;;21.10;1.00;;;;;;4959099;28;20527;-81
2022/04/27 12:12:27;;;;;;;16.33;11.73;;;20.50;1.00;;;;;;4958459;28;21008;-81
2022/04/27 12:14:54;;;;;;;18.03;12.10;;;20.70;1.00;;;;;;4960012;28;20460;-81
2022/04/27 12:17:50;;;;;;;18.50;11.60;;;21.10;1.00;;;;;;4961592;28;20546;-81
2022/04/27 12:20:40;;;;;;;14.67;11.70;;;21.30;1.00;;;;;;4960540;28;20483;-81
2022/04/27 12:23:08;;;;;;;13.90;11.37;;;21.20;1.00;;;;;;4960888;28;20838;-84
2022/04/27 12:25:41;;;;;;;15.73;10.87;;;21.10;1.00;;;;;;4959662;28;20456;-81
2022/04/27 12:28:11;;;;;;;16.33;13.20;;;21.30;1.00;;;;;;4960173;28;20483;-79
2022/04/27 12:30:49;;;;;;;15.87;12.17;;;21.40;1.00;;;;;;4960512;28;20459;-81
2022/04/27 12:33:17;;;;;;;14.07;11.47;;;21.10;1.00;;;;;;4959806;28;20975;-80
2022/04/27 12:38:30;;;;;;;17.00;12.17;;;20.80;1.00;;;;;;4961917;29;21045;-81
2022/04/27 12:41:25;;;;;;;13.20;11.80;;;20.90;1.00;;;;;;4962438;28;20455;-81
2022/04/27 12:43:52;;;;;;;16.47;11.27;;;21.50;1.00;;;;;;4963058;28;20455;-84
2022/04/27 12:46:19;;;;;;;14.77;11.57;;;21.20;1.00;;;;;;4962195;28;20515;-81
2022/04/27 12:48:46;;;;;;;13.93;11.63;;;21.90;1.00;;;;;;4961630;28;20476;-81
2022/04/27 12:51:12;;;;;;;15.13;11.47;;;22.80;1.00;;;;;;4963519;28;20566;-83
2022/04/27 12:53:41;;;;;;;15.43;11.33;;;23.20;1.00;;;;;;4964146;28;20460;-81
2022/04/27 12:56:15;;;;;;;14.93;12.73;;;21.90;1.00;;;;;;4965092;28;20463;-81
2022/04/27 12:58:42;;;;;;;17.60;12.67;;;21.60;1.00;;;;;;4962585;28;20498;-81
2022/04/27 13:01:27;;;;;;;14.43;12.50;;;20.90;1.00;;;;;;4964212;28;20550;-83
2022/04/27 13:03:53;;;;;;;15.17;11.33;;;21.90;1.00;;;;;;4961178;28;20455;-81
2022/04/27 13:06:22;;;;;;;19.57;11.30;;;21.60;1.00;;;;;;4963281;28;20466;-81